sensor_id;sensor_type;location;lat;lon;timestamp;pressure;altitude;pressure_sealevel;temperature;humidity
23643;BME280;11998;55.788;37.572;2023-06-19T00:00:56;98850.63;;;93.23;9.67
23643;BME280;11998;55.788;37.572;2023-06-19T00:01:58;98854.81;;;93.93;9.62
23643;BME280;11998;55.788;37.572;2023-06-19T00:02:59;98847.13;;;92.72;9.72
23643;BME280;11998;55.788;37.572;2023-06-19T00:03:59;98835.56;;;91.32;10.16
23643;BME280;11998;55.788;37.572;2023-06-19T00:05:00;98823.41;;;91.97;9.80
23643;BME280;11998;55.788;37.572;2023-06-19T00:06:01;98829.59;;;92.17;9.66
23643;BME280;11998;55.788;37.572;2023-06-19T00:07:03;98831.94;;;92.97;9.88
23643;BME280;11998;55.788;37.572;2023-06-19T00:08:04;98846.06;;;93.04;9.83
23643;BME280;11998;55.788;37.572;2023-06-19T00:09:07;98835.47;;;91.72;10.04
23643;BME280;11998;55.788;37.572;2023-06-19T00:10:07;98817.00;;;89.98;10.07
23643;BME280;11998;55.788;37.572;2023-06-19T00:11:10;98827.91;;;92.06;9.64
23643;BME280;11998;55.788;37.572;2023-06-19T00:12:11;98832.97;;;92.65;9.85
23643;BME280;11998;55.788;37.572;2023-06-19T00:13:12;98820.41;;;90.02;10.12
23643;BME280;11998;55.788;37.572;2023-06-19T00:14:12;98823.91;;;91.44;9.65
23643;BME280;11998;55.788;37.572;2023-06-19T00:15:13;98828.81;;;92.34;9.74
23643;BME280;11998;55.788;37.572;2023-06-19T00:16:14;98834.78;;;92.51;9.69
23643;BME280;11998;55.788;37.572;2023-06-19T00:17:14;98843.41;;;93.08;9.64
23643;BME280;11998;55.788;37.572;2023-06-19T00:18:18;98839.69;;;91.87;9.75
23643;BME280;11998;55.788;37.572;2023-06-19T00:19:20;98842.25;;;92.77;9.65
23643;BME280;11998;55.788;37.572;2023-06-19T00:20:20;98852.28;;;93.06;9.54
23643;BME280;11998;55.788;37.572;2023-06-19T00:21:27;98847.81;;;93.34;9.56
23643;BME280;11998;55.788;37.572;2023-06-19T00:22:27;98836.00;;;91.54;9.90
23643;BME280;11998;55.788;37.572;2023-06-19T00:23:28;98830.66;;;91.94;9.86
23643;BME280;11998;55.788;37.572;2023-06-19T00:24:29;98824.13;;;90.25;9.96
23643;BME280;11998;55.788;37.572;2023-06-19T00:25:29;98826.75;;;91.09;9.91
23643;BME280;11998;55.788;37.572;2023-06-19T00:26:30;98831.38;;;92.20;9.65
23643;BME280;11998;55.788;37.572;2023-06-19T00:27:30;98836.59;;;91.27;9.85
23643;BME280;11998;55.788;37.572;2023-06-19T00:28:31;98832.31;;;91.13;9.99
23643;BME280;11998;55.788;37.572;2023-06-19T00:29:32;98830.06;;;91.46;9.66
23643;BME280;11998;55.788;37.572;2023-06-19T00:30:33;98830.28;;;92.42;9.70
23643;BME280;11998;55.788;37.572;2023-06-19T00:31:34;98823.19;;;89.39;9.90
23643;BME280;11998;55.788;37.572;2023-06-19T00:32:37;98808.84;;;88.27;9.87
23643;BME280;11998;55.788;37.572;2023-06-19T00:33:46;98792.31;;;87.69;10.08
23643;BME280;11998;55.788;37.572;2023-06-19T00:34:50;98802.84;;;89.30;10.01
23643;BME280;11998;55.788;37.572;2023-06-19T00:35:51;98799.31;;;87.50;10.07
23643;BME280;11998;55.788;37.572;2023-06-19T00:36:52;98796.28;;;87.92;10.15
23643;BME280;11998;55.788;37.572;2023-06-19T00:37:56;98799.44;;;88.51;10.08
23643;BME280;11998;55.788;37.572;2023-06-19T00:39:00;98806.41;;;89.05;9.71
23643;BME280;11998;55.788;37.572;2023-06-19T00:40:01;98806.75;;;88.94;10.13
23643;BME280;11998;55.788;37.572;2023-06-19T00:41:03;98812.25;;;88.67;9.84
23643;BME280;11998;55.788;37.572;2023-06-19T00:42:04;98817.56;;;90.12;9.68
23643;BME280;11998;55.788;37.572;2023-06-19T00:43:06;98812.94;;;88.96;10.00
23643;BME280;11998;55.788;37.572;2023-06-19T00:44:06;98815.63;;;89.53;9.95
23643;BME280;11998;55.788;37.572;2023-06-19T00:45:07;98824.09;;;90.41;9.67
23643;BME280;11998;55.788;37.572;2023-06-19T00:46:08;98812.56;;;89.07;9.93
23643;BME280;11998;55.788;37.572;2023-06-19T00:47:10;98824.22;;;88.75;9.68
23643;BME280;11998;55.788;37.572;2023-06-19T00:48:11;98832.75;;;90.06;10.03
23643;BME280;11998;55.788;37.572;2023-06-19T00:49:13;98815.97;;;89.04;9.75
23643;BME280;11998;55.788;37.572;2023-06-19T00:50:17;98808.50;;;88.38;10.00
23643;BME280;11998;55.788;37.572;2023-06-19T00:51:18;98813.25;;;88.70;10.10
23643;BME280;11998;55.788;37.572;2023-06-19T00:52:18;98823.19;;;90.00;9.68
23643;BME280;11998;55.788;37.572;2023-06-19T00:53:19;98835.78;;;91.34;9.78
23643;BME280;11998;55.788;37.572;2023-06-19T00:54:20;98829.59;;;89.81;9.85
23643;BME280;11998;55.788;37.572;2023-06-19T00:55:21;98831.16;;;89.29;10.01
23643;BME280;11998;55.788;37.572;2023-06-19T00:56:22;98815.75;;;87.65;10.20
23643;BME280;11998;55.788;37.572;2023-06-19T00:57:23;98808.94;;;87.02;9.97
23643;BME280;11998;55.788;37.572;2023-06-19T00:58:24;98809.06;;;87.51;10.12
23643;BME280;11998;55.788;37.572;2023-06-19T00:59:24;98812.56;;;88.56;9.93
23643;BME280;11998;55.788;37.572;2023-06-19T01:00:25;98819.16;;;89.06;9.93
23643;BME280;11998;55.788;37.572;2023-06-19T01:01:26;98810.78;;;87.46;9.99
23643;BME280;11998;55.788;37.572;2023-06-19T01:02:27;98813.69;;;87.39;10.04
23643;BME280;11998;55.788;37.572;2023-06-19T01:03:28;98814.03;;;89.67;10.05
23643;BME280;11998;55.788;37.572;2023-06-19T01:04:29;98829.91;;;89.16;9.81
23643;BME280;11998;55.788;37.572;2023-06-19T01:05:30;98844.63;;;90.37;9.64
23643;BME280;11998;55.788;37.572;2023-06-19T01:06:38;98816.66;;;87.18;10.18
23643;BME280;11998;55.788;37.572;2023-06-19T01:09:05;98822.97;;;86.80;10.15
23643;BME280;11998;55.788;37.572;2023-06-19T01:10:12;98811.94;;;87.43;9.99
23643;BME280;11998;55.788;37.572;2023-06-19T01:11:17;98818.53;;;88.48;10.04
23643;BME280;11998;55.788;37.572;2023-06-19T01:12:36;98829.16;;;89.31;9.76
23643;BME280;11998;55.788;37.572;2023-06-19T01:13:44;98823.69;;;88.84;9.88
23643;BME280;11998;55.788;37.572;2023-06-19T01:15:50;98816.28;;;88.05;10.03
23643;BME280;11998;55.788;37.572;2023-06-19T01:16:51;98832.47;;;88.53;9.85
23643;BME280;11998;55.788;37.572;2023-06-19T01:17:53;98823.22;;;88.36;10.04
23643;BME280;11998;55.788;37.572;2023-06-19T01:18:55;98824.91;;;88.96;9.85
23643;BME280;11998;55.788;37.572;2023-06-19T01:19:57;98833.19;;;89.87;9.82
23643;BME280;11998;55.788;37.572;2023-06-19T01:21:10;98830.72;;;89.17;9.96
23643;BME280;11998;55.788;37.572;2023-06-19T01:22:11;98827.16;;;88.31;10.02
23643;BME280;11998;55.788;37.572;2023-06-19T01:23:22;98829.75;;;89.30;9.88
23643;BME280;11998;55.788;37.572;2023-06-19T01:24:23;98830.28;;;89.05;10.03
23643;BME280;11998;55.788;37.572;2023-06-19T01:25:24;98822.78;;;88.32;9.99
23643;BME280;11998;55.788;37.572;2023-06-19T01:26:25;98810.66;;;87.52;10.03
23643;BME280;11998;55.788;37.572;2023-06-19T01:27:28;98817.38;;;88.59;10.06
23643;BME280;11998;55.788;37.572;2023-06-19T01:28:31;98832.75;;;89.91;9.74
23643;BME280;11998;55.788;37.572;2023-06-19T01:29:32;98851.78;;;91.29;9.72
23643;BME280;11998;55.788;37.572;2023-06-19T01:30:33;98832.25;;;88.95;9.95
23643;BME280;11998;55.788;37.572;2023-06-19T01:31:45;98837.50;;;89.10;9.89
23643;BME280;11998;55.788;37.572;2023-06-19T01:33:05;98830.78;;;88.73;9.98
23643;BME280;11998;55.788;37.572;2023-06-19T01:34:10;98839.91;;;89.27;9.86
23643;BME280;11998;55.788;37.572;2023-06-19T01:35:13;98839.75;;;88.81;10.00
23643;BME280;11998;55.788;37.572;2023-06-19T01:36:17;98837.25;;;88.56;9.88
23643;BME280;11998;55.788;37.572;2023-06-19T01:37:18;98837.94;;;89.98;9.64
23643;BME280;11998;55.788;37.572;2023-06-19T01:38:24;98846.72;;;89.96;10.01
23643;BME280;11998;55.788;37.572;2023-06-19T01:39:26;98842.72;;;89.93;10.03
23643;BME280;11998;55.788;37.572;2023-06-19T01:40:29;98846.75;;;89.73;9.75
23643;BME280;11998;55.788;37.572;2023-06-19T01:41:32;98836.34;;;89.51;9.90
23643;BME280;11998;55.788;37.572;2023-06-19T01:42:34;98849.47;;;90.24;9.70
23643;BME280;11998;55.788;37.572;2023-06-19T01:43:36;98847.91;;;90.08;9.84
23643;BME280;11998;55.788;37.572;2023-06-19T01:44:37;98840.53;;;89.78;9.88
23643;BME280;11998;55.788;37.572;2023-06-19T01:45:38;98843.34;;;88.79;10.13
23643;BME280;11998;55.788;37.572;2023-06-19T01:46:39;98843.94;;;89.67;9.88
23643;BME280;11998;55.788;37.572;2023-06-19T01:47:40;98833.38;;;88.77;10.03
23643;BME280;11998;55.788;37.572;2023-06-19T01:48:40;98842.72;;;89.55;9.77
23643;BME280;11998;55.788;37.572;2023-06-19T01:49:41;98849.13;;;89.59;9.72
23643;BME280;11998;55.788;37.572;2023-06-19T01:50:48;98848.31;;;89.97;9.76
23643;BME280;11998;55.788;37.572;2023-06-19T01:51:49;98856.31;;;90.02;9.68
23643;BME280;11998;55.788;37.572;2023-06-19T01:52:51;98855.03;;;91.49;9.72
23643;BME280;11998;55.788;37.572;2023-06-19T01:53:52;98857.19;;;91.56;9.61
23643;BME280;11998;55.788;37.572;2023-06-19T01:54:53;98869.78;;;92.56;9.53
23643;BME280;11998;55.788;37.572;2023-06-19T01:55:53;98872.09;;;91.88;9.65
23643;BME280;11998;55.788;37.572;2023-06-19T01:56:54;98860.31;;;92.08;9.68
23643;BME280;11998;55.788;37.572;2023-06-19T01:57:54;98860.94;;;91.31;9.89
23643;BME280;11998;55.788;37.572;2023-06-19T01:58:55;98855.03;;;91.24;9.86
23643;BME280;11998;55.788;37.572;2023-06-19T01:59:56;98852.56;;;91.30;9.64
23643;BME280;11998;55.788;37.572;2023-06-19T02:00:56;98854.69;;;91.44;9.69
23643;BME280;11998;55.788;37.572;2023-06-19T02:01:57;98842.56;;;90.62;10.00
23643;BME280;11998;55.788;37.572;2023-06-19T02:02:58;98848.81;;;90.49;9.69
23643;BME280;11998;55.788;37.572;2023-06-19T02:03:59;98838.28;;;90.32;9.90
23643;BME280;11998;55.788;37.572;2023-06-19T02:04:59;98859.50;;;91.65;9.64
23643;BME280;11998;55.788;37.572;2023-06-19T02:06:00;98858.50;;;91.87;9.69
23643;BME280;11998;55.788;37.572;2023-06-19T02:07:01;98854.91;;;91.64;9.73
23643;BME280;11998;55.788;37.572;2023-06-19T02:08:01;98840.75;;;89.73;9.81
23643;BME280;11998;55.788;37.572;2023-06-19T02:09:02;98839.47;;;89.07;9.87
23643;BME280;11998;55.788;37.572;2023-06-19T02:10:03;98833.38;;;89.51;10.05
23643;BME280;11998;55.788;37.572;2023-06-19T02:11:05;98852.00;;;90.99;9.87
23643;BME280;11998;55.788;37.572;2023-06-19T02:12:06;98847.09;;;90.15;9.80
23643;BME280;11998;55.788;37.572;2023-06-19T02:13:06;98844.41;;;90.90;9.75
23643;BME280;11998;55.788;37.572;2023-06-19T02:14:09;98853.00;;;91.76;9.70
23643;BME280;11998;55.788;37.572;2023-06-19T02:15:10;98854.31;;;91.40;10.05
23643;BME280;11998;55.788;37.572;2023-06-19T02:16:11;98851.19;;;91.56;9.71
23643;BME280;11998;55.788;37.572;2023-06-19T02:17:11;98856.00;;;91.51;9.67
23643;BME280;11998;55.788;37.572;2023-06-19T02:18:12;98843.47;;;89.17;10.17
23643;BME280;11998;55.788;37.572;2023-06-19T02:19:13;98840.94;;;89.75;9.83
23643;BME280;11998;55.788;37.572;2023-06-19T02:20:14;98840.72;;;90.19;9.78
23643;BME280;11998;55.788;37.572;2023-06-19T02:21:14;98849.47;;;91.20;9.70
23643;BME280;11998;55.788;37.572;2023-06-19T02:22:17;98845.13;;;91.06;9.83
23643;BME280;11998;55.788;37.572;2023-06-19T02:23:18;98855.97;;;91.01;9.75
23643;BME280;11998;55.788;37.572;2023-06-19T02:24:21;98853.38;;;90.50;9.71
23643;BME280;11998;55.788;37.572;2023-06-19T02:25:22;98840.13;;;90.68;9.68
23643;BME280;11998;55.788;37.572;2023-06-19T02:26:23;98854.28;;;91.65;9.66
23643;BME280;11998;55.788;37.572;2023-06-19T02:27:23;98844.00;;;91.51;9.79
23643;BME280;11998;55.788;37.572;2023-06-19T02:28:24;98837.22;;;91.51;9.87
23643;BME280;11998;55.788;37.572;2023-06-19T02:29:25;98832.44;;;90.98;9.82
23643;BME280;11998;55.788;37.572;2023-06-19T02:30:26;98836.03;;;90.88;9.87
23643;BME280;11998;55.788;37.572;2023-06-19T02:31:26;98837.84;;;91.24;9.75
23643;BME280;11998;55.788;37.572;2023-06-19T02:32:27;98843.25;;;91.68;9.86
23643;BME280;11998;55.788;37.572;2023-06-19T02:33:28;98841.63;;;92.34;9.70
23643;BME280;11998;55.788;37.572;2023-06-19T02:34:29;98848.47;;;92.27;9.59
23643;BME280;11998;55.788;37.572;2023-06-19T02:35:30;98846.25;;;91.68;9.92
23643;BME280;11998;55.788;37.572;2023-06-19T02:36:30;98854.34;;;92.87;9.51
23643;BME280;11998;55.788;37.572;2023-06-19T02:37:31;98845.28;;;91.90;9.75
23643;BME280;11998;55.788;37.572;2023-06-19T02:38:32;98853.63;;;92.34;9.64
23643;BME280;11998;55.788;37.572;2023-06-19T02:39:33;98845.31;;;92.25;9.55
23643;BME280;11998;55.788;37.572;2023-06-19T02:40:33;98839.88;;;91.71;9.69
23643;BME280;11998;55.788;37.572;2023-06-19T02:41:34;98844.19;;;92.65;9.69
23643;BME280;11998;55.788;37.572;2023-06-19T02:42:36;98837.22;;;91.51;9.73
23643;BME280;11998;55.788;37.572;2023-06-19T02:43:42;98845.31;;;92.25;9.66
23643;BME280;11998;55.788;37.572;2023-06-19T02:44:43;98843.28;;;92.89;9.61
23643;BME280;11998;55.788;37.572;2023-06-19T02:45:43;98851.19;;;92.67;9.80
23643;BME280;11998;55.788;37.572;2023-06-19T02:46:44;98846.38;;;92.20;9.51
23643;BME280;11998;55.788;37.572;2023-06-19T02:47:45;98850.59;;;91.99;9.62
23643;BME280;11998;55.788;37.572;2023-06-19T02:48:46;98832.19;;;90.55;9.98
23643;BME280;11998;55.788;37.572;2023-06-19T02:49:46;98839.22;;;90.98;9.77
23643;BME280;11998;55.788;37.572;2023-06-19T02:50:47;98831.56;;;91.05;9.60
23643;BME280;11998;55.788;37.572;2023-06-19T02:51:48;98826.88;;;90.86;9.76
23643;BME280;11998;55.788;37.572;2023-06-19T02:52:48;98827.72;;;91.12;9.53
23643;BME280;11998;55.788;37.572;2023-06-19T02:53:49;98845.47;;;92.44;9.47
23643;BME280;11998;55.788;37.572;2023-06-19T02:54:50;98845.44;;;93.33;9.50
23643;BME280;11998;55.788;37.572;2023-06-19T02:55:50;98856.03;;;93.90;9.59
23643;BME280;11998;55.788;37.572;2023-06-19T02:56:51;98860.22;;;94.43;9.35
23643;BME280;11998;55.788;37.572;2023-06-19T02:57:52;98869.03;;;93.83;9.70
23643;BME280;11998;55.788;37.572;2023-06-19T02:58:53;98842.66;;;92.12;9.79
23643;BME280;11998;55.788;37.572;2023-06-19T02:59:53;98851.91;;;93.39;9.78
23643;BME280;11998;55.788;37.572;2023-06-19T03:00:54;98852.78;;;94.05;9.62
23643;BME280;11998;55.788;37.572;2023-06-19T03:01:55;98853.56;;;94.15;9.77
23643;BME280;11998;55.788;37.572;2023-06-19T03:02:56;98863.88;;;94.70;9.26
23643;BME280;11998;55.788;37.572;2023-06-19T03:03:57;98852.44;;;93.45;9.60
23643;BME280;11998;55.788;37.572;2023-06-19T03:04:57;98847.88;;;93.54;9.61
23643;BME280;11998;55.788;37.572;2023-06-19T03:05:58;98857.03;;;94.41;9.84
23643;BME280;11998;55.788;37.572;2023-06-19T03:06:59;98858.19;;;94.55;9.37
23643;BME280;11998;55.788;37.572;2023-06-19T03:08:00;98842.47;;;93.16;9.45
23643;BME280;11998;55.788;37.572;2023-06-19T03:09:01;98856.75;;;94.17;9.77
23643;BME280;11998;55.788;37.572;2023-06-19T03:10:01;98850.69;;;94.27;9.44
23643;BME280;11998;55.788;37.572;2023-06-19T03:11:03;98837.88;;;92.61;9.63
23643;BME280;11998;55.788;37.572;2023-06-19T03:12:05;98825.97;;;90.21;9.98
23643;BME280;11998;55.788;37.572;2023-06-19T03:13:06;98835.03;;;92.63;9.66
23643;BME280;11998;55.788;37.572;2023-06-19T03:14:07;98840.63;;;93.66;9.69
23643;BME280;11998;55.788;37.572;2023-06-19T03:15:08;98841.06;;;94.19;9.43
23643;BME280;11998;55.788;37.572;2023-06-19T03:16:09;98849.22;;;94.86;9.49
23643;BME280;11998;55.788;37.572;2023-06-19T03:17:09;98856.06;;;95.27;9.28
23643;BME280;11998;55.788;37.572;2023-06-19T03:18:10;98873.38;;;95.27;9.37
23643;BME280;11998;55.788;37.572;2023-06-19T03:19:11;98867.69;;;95.52;9.69
23643;BME280;11998;55.788;37.572;2023-06-19T03:20:12;98876.00;;;95.73;9.47
23643;BME280;11998;55.788;37.572;2023-06-19T03:21:16;98870.22;;;95.77;9.51
23643;BME280;11998;55.788;37.572;2023-06-19T03:22:20;98868.09;;;96.11;9.24
23643;BME280;11998;55.788;37.572;2023-06-19T03:23:21;98871.25;;;96.13;9.28
23643;BME280;11998;55.788;37.572;2023-06-19T03:24:22;98872.69;;;96.33;9.36
23643;BME280;11998;55.788;37.572;2023-06-19T03:25:23;98858.88;;;95.45;9.49
23643;BME280;11998;55.788;37.572;2023-06-19T03:26:24;98853.72;;;95.16;9.46
23643;BME280;11998;55.788;37.572;2023-06-19T03:27:27;98859.59;;;95.55;9.28
23643;BME280;11998;55.788;37.572;2023-06-19T03:28:29;98829.47;;;91.90;9.64
23643;BME280;11998;55.788;37.572;2023-06-19T03:29:30;98826.75;;;93.34;9.69
23643;BME280;11998;55.788;37.572;2023-06-19T03:30:30;98829.28;;;93.94;9.69
23643;BME280;11998;55.788;37.572;2023-06-19T03:31:31;98827.28;;;92.25;9.86
23643;BME280;11998;55.788;37.572;2023-06-19T03:32:32;98829.22;;;93.65;9.65
23643;BME280;11998;55.788;37.572;2023-06-19T03:33:36;98828.50;;;94.03;9.45
23643;BME280;11998;55.788;37.572;2023-06-19T03:34:37;98813.66;;;91.89;9.73
23643;BME280;11998;55.788;37.572;2023-06-19T03:35:38;98819.47;;;92.74;9.78
23643;BME280;11998;55.788;37.572;2023-06-19T03:36:38;98826.75;;;93.90;9.68
23643;BME280;11998;55.788;37.572;2023-06-19T03:37:39;98807.06;;;91.73;9.68
23643;BME280;11998;55.788;37.572;2023-06-19T03:38:39;98827.81;;;93.76;9.58
23643;BME280;11998;55.788;37.572;2023-06-19T03:39:40;98820.41;;;91.97;9.83
23643;BME280;11998;55.788;37.572;2023-06-19T03:40:41;98807.22;;;89.97;9.89
23643;BME280;11998;55.788;37.572;2023-06-19T03:41:41;98811.22;;;91.28;10.02
23643;BME280;11998;55.788;37.572;2023-06-19T03:42:42;98821.28;;;92.25;9.76
23643;BME280;11998;55.788;37.572;2023-06-19T03:43:43;98815.31;;;91.40;9.77
23643;BME280;11998;55.788;37.572;2023-06-19T03:44:43;98809.28;;;92.25;9.72
23643;BME280;11998;55.788;37.572;2023-06-19T03:45:44;98817.50;;;92.07;9.80
23643;BME280;11998;55.788;37.572;2023-06-19T03:46:44;98827.78;;;93.56;9.60
23643;BME280;11998;55.788;37.572;2023-06-19T03:47:45;98840.34;;;93.72;9.74
23643;BME280;11998;55.788;37.572;2023-06-19T03:48:46;98845.44;;;93.33;9.57
23643;BME280;11998;55.788;37.572;2023-06-19T03:49:47;98834.66;;;92.76;9.52
23643;BME280;11998;55.788;37.572;2023-06-19T03:50:48;98832.63;;;93.32;9.72
23643;BME280;11998;55.788;37.572;2023-06-19T03:51:49;98856.19;;;94.79;9.21
23643;BME280;11998;55.788;37.572;2023-06-19T03:52:50;98853.59;;;94.35;9.61
23643;BME280;11998;55.788;37.572;2023-06-19T03:53:50;98859.19;;;93.92;9.74
23643;BME280;11998;55.788;37.572;2023-06-19T03:54:51;98853.38;;;94.81;9.55
23643;BME280;11998;55.788;37.572;2023-06-19T03:55:51;98853.88;;;94.68;9.29
23643;BME280;11998;55.788;37.572;2023-06-19T03:56:52;98858.94;;;94.46;9.30
23643;BME280;11998;55.788;37.572;2023-06-19T03:57:55;98840.72;;;94.15;9.63
23643;BME280;11998;55.788;37.572;2023-06-19T03:58:56;98838.19;;;94.02;9.61
23643;BME280;11998;55.788;37.572;2023-06-19T03:59:56;98855.09;;;94.94;9.63
23643;BME280;11998;55.788;37.572;2023-06-19T04:00:57;98849.72;;;93.86;9.64
23643;BME280;11998;55.788;37.572;2023-06-19T04:01:58;98864.41;;;95.39;9.11
23643;BME280;11998;55.788;37.572;2023-06-19T04:02:58;98867.53;;;96.03;9.38
23643;BME280;11998;55.788;37.572;2023-06-19T04:03:59;98876.03;;;96.49;9.48
23643;BME280;11998;55.788;37.572;2023-06-19T04:05:00;98885.53;;;97.12;9.27
23643;BME280;11998;55.788;37.572;2023-06-19T04:06:00;98850.41;;;93.57;9.83
23643;BME280;11998;55.788;37.572;2023-06-19T04:07:01;98850.22;;;94.02;9.45
23643;BME280;11998;55.788;37.572;2023-06-19T04:08:01;98846.47;;;95.00;9.70
23643;BME280;11998;55.788;37.572;2023-06-19T04:09:03;98858.81;;;95.97;9.68
23643;BME280;11998;55.788;37.572;2023-06-19T04:10:05;98865.66;;;96.40;9.42
23643;BME280;11998;55.788;37.572;2023-06-19T04:11:06;98871.34;;;97.03;9.15
23643;BME280;11998;55.788;37.572;2023-06-19T04:12:07;98883.31;;;97.71;9.13
23643;BME280;11998;55.788;37.572;2023-06-19T04:13:07;98878.75;;;97.46;9.33
23643;BME280;11998;55.788;37.572;2023-06-19T04:14:08;98880.72;;;98.14;9.18
23643;BME280;11998;55.788;37.572;2023-06-19T04:15:12;98889.19;;;98.66;9.41
23643;BME280;11998;55.788;37.572;2023-06-19T04:16:13;98889.47;;;97.96;9.40
23643;BME280;11998;55.788;37.572;2023-06-19T04:17:14;98886.13;;;98.92;9.03
23643;BME280;11998;55.788;37.572;2023-06-19T04:18:15;98885.06;;;99.82;9.00
23643;BME280;11998;55.788;37.572;2023-06-19T04:19:16;98898.28;;;101.06;8.94
23643;BME280;11998;55.788;37.572;2023-06-19T04:20:17;98894.13;;;102.32;8.88
23643;BME280;11998;55.788;37.572;2023-06-19T04:21:18;98896.53;;;102.71;8.93
23643;BME280;11998;55.788;37.572;2023-06-19T04:22:19;98891.06;;;103.05;8.60
23643;BME280;11998;55.788;37.572;2023-06-19T04:23:19;98892.59;;;103.66;9.11
23643;BME280;11998;55.788;37.572;2023-06-19T04:24:20;98887.47;;;103.51;9.10
23643;BME280;11998;55.788;37.572;2023-06-19T04:25:20;98880.19;;;104.26;9.05
23643;BME280;11998;55.788;37.572;2023-06-19T04:26:21;98873.94;;;103.78;9.12
23643;BME280;11998;55.788;37.572;2023-06-19T04:27:22;98883.53;;;104.58;8.99
23643;BME280;11998;55.788;37.572;2023-06-19T04:28:22;98877.25;;;104.75;9.03
23643;BME280;11998;55.788;37.572;2023-06-19T04:29:23;98868.56;;;104.44;8.96
23643;BME280;11998;55.788;37.572;2023-06-19T04:30:24;98867.47;;;104.57;9.05
23643;BME280;11998;55.788;37.572;2023-06-19T04:31:24;98857.75;;;104.39;8.94
23643;BME280;11998;55.788;37.572;2023-06-19T04:32:26;98857.22;;;103.17;9.13
23643;BME280;11998;55.788;37.572;2023-06-19T04:33:28;98858.00;;;104.97;8.90
23643;BME280;11998;55.788;37.572;2023-06-19T04:34:29;98856.03;;;104.34;9.01
23643;BME280;11998;55.788;37.572;2023-06-19T04:35:30;98861.09;;;105.49;8.91
23643;BME280;11998;55.788;37.572;2023-06-19T04:36:30;98864.88;;;107.06;8.69
23643;BME280;11998;55.788;37.572;2023-06-19T04:37:32;98857.59;;;107.23;8.77
23643;BME280;11998;55.788;37.572;2023-06-19T04:38:32;98852.94;;;107.60;8.59
23643;BME280;11998;55.788;37.572;2023-06-19T04:39:33;98846.34;;;108.26;8.97
23643;BME280;11998;55.788;37.572;2023-06-19T04:40:34;98848.59;;;108.78;8.62
23643;BME280;11998;55.788;37.572;2023-06-19T04:41:34;98844.38;;;108.49;8.83
23643;BME280;11998;55.788;37.572;2023-06-19T04:42:38;98840.59;;;109.17;8.70
23643;BME280;11998;55.788;37.572;2023-06-19T04:43:39;98843.88;;;110.33;9.00
23643;BME280;11998;55.788;37.572;2023-06-19T04:44:41;98843.19;;;110.61;8.69
23643;BME280;11998;55.788;37.572;2023-06-19T04:45:42;98824.69;;;110.49;8.90
23643;BME280;11998;55.788;37.572;2023-06-19T04:46:43;98836.44;;;111.62;8.68
23643;BME280;11998;55.788;37.572;2023-06-19T04:47:46;98835.38;;;112.60;8.93
23643;BME280;11998;55.788;37.572;2023-06-19T04:48:47;98819.81;;;112.78;8.62
23643;BME280;11998;55.788;37.572;2023-06-19T04:49:51;98806.34;;;111.08;9.10
23643;BME280;11998;55.788;37.572;2023-06-19T04:50:52;98810.78;;;112.39;8.44
23643;BME280;11998;55.788;37.572;2023-06-19T04:51:52;98803.28;;;111.73;8.45
23643;BME280;11998;55.788;37.572;2023-06-19T04:52:53;98795.56;;;111.56;9.02
23643;BME280;11998;55.788;37.572;2023-06-19T04:53:53;98812.00;;;112.93;8.47
23643;BME280;11998;55.788;37.572;2023-06-19T04:54:54;98813.03;;;113.53;8.45
23643;BME280;11998;55.788;37.572;2023-06-19T04:55:55;98810.22;;;114.58;8.58
23643;BME280;11998;55.788;37.572;2023-06-19T04:56:55;98801.38;;;115.24;8.43
23643;BME280;11998;55.788;37.572;2023-06-19T04:57:56;98805.13;;;115.72;8.47
23643;BME280;11998;55.788;37.572;2023-06-19T04:59:00;98793.84;;;116.27;8.78
23643;BME280;11998;55.788;37.572;2023-06-19T05:00:02;98788.78;;;116.77;8.65
23643;BME280;11998;55.788;37.572;2023-06-19T05:01:05;98789.16;;;116.28;8.72
23643;BME280;11998;55.788;37.572;2023-06-19T05:02:06;98780.81;;;116.53;8.67
23643;BME280;11998;55.788;37.572;2023-06-19T05:03:07;98779.47;;;117.06;8.50
23643;BME280;11998;55.788;37.572;2023-06-19T05:04:08;98775.69;;;117.02;8.67
23643;BME280;11998;55.788;37.572;2023-06-19T05:05:09;98771.69;;;117.86;8.44
23643;BME280;11998;55.788;37.572;2023-06-19T05:06:09;98769.41;;;117.85;8.77
23643;BME280;11998;55.788;37.572;2023-06-19T05:07:10;98769.66;;;117.77;8.68
23643;BME280;11998;55.788;37.572;2023-06-19T05:08:13;98763.78;;;118.62;8.76
23643;BME280;11998;55.788;37.572;2023-06-19T05:09:14;98749.78;;;118.84;8.67
23643;BME280;11998;55.788;37.572;2023-06-19T05:10:15;98753.84;;;119.83;8.63
23643;BME280;11998;55.788;37.572;2023-06-19T05:11:16;98760.56;;;119.71;8.84
23643;BME280;11998;55.788;37.572;2023-06-19T05:12:16;98740.38;;;117.42;9.16
23643;BME280;11998;55.788;37.572;2023-06-19T05:13:17;98719.13;;;115.30;9.17
23643;BME280;11998;55.788;37.572;2023-06-19T05:14:18;98709.66;;;114.51;9.07
23643;BME280;11998;55.788;37.572;2023-06-19T05:15:19;98719.06;;;116.06;8.71
23643;BME280;11998;55.788;37.572;2023-06-19T05:16:19;98723.78;;;116.96;8.75
23643;BME280;11998;55.788;37.572;2023-06-19T05:17:20;98725.38;;;116.95;8.84
23643;BME280;11998;55.788;37.572;2023-06-19T05:18:21;98730.00;;;117.77;8.92
23643;BME280;11998;55.788;37.572;2023-06-19T05:19:24;98715.75;;;118.32;8.79
23643;BME280;11998;55.788;37.572;2023-06-19T05:20:25;98729.59;;;118.37;8.83
23643;BME280;11998;55.788;37.572;2023-06-19T05:21:25;98723.59;;;116.73;9.02
23643;BME280;11998;55.788;37.572;2023-06-19T05:22:26;98721.34;;;116.41;9.00
23643;BME280;11998;55.788;37.572;2023-06-19T05:23:27;98711.44;;;117.21;9.12
23643;BME280;11998;55.788;37.572;2023-06-19T05:24:28;98721.06;;;117.65;8.86
23643;BME280;11998;55.788;37.572;2023-06-19T05:25:29;98723.59;;;118.31;8.79
23643;BME280;11998;55.788;37.572;2023-06-19T05:26:29;98728.75;;;118.62;8.87
23643;BME280;11998;55.788;37.572;2023-06-19T05:27:30;98730.53;;;119.00;8.80